createdAt,value
2018-05-24T00:00:25.723Z,15.30
2018-05-24T00:03:00.660Z,15.10
2018-05-24T00:05:31.728Z,14.90
2018-05-24T00:07:59.157Z,14.80
2018-05-24T00:10:26.428Z,14.80
2018-05-24T00:12:54.750Z,14.90
2018-05-24T00:15:30.925Z,14.90
2018-05-24T00:18:03.874Z,14.90
2018-05-24T00:20:43.280Z,14.80
2018-05-24T00:23:17.704Z,14.80
2018-05-24T00:26:08.729Z,14.70
2018-05-24T00:28:45.017Z,14.70
2018-05-24T00:31:24.553Z,14.70
2018-05-24T00:33:54.937Z,14.70
2018-05-24T00:36:23.481Z,14.70
2018-05-24T00:38:51.882Z,14.70
2018-05-24T00:41:26.520Z,14.70
2018-05-24T00:43:59.737Z,14.90
2018-05-24T00:46:33.050Z,15.00
2018-05-24T00:49:29.649Z,15.00
2018-05-24T00:52:07.296Z,15.10
2018-05-24T00:54:36.320Z,14.90
2018-05-24T00:57:46.073Z,14.90
2018-05-24T01:00:15.273Z,14.90
2018-05-24T01:02:46.756Z,14.90
2018-05-24T01:05:17.652Z,14.90
2018-05-24T01:07:52.028Z,14.90
2018-05-24T01:10:20.413Z,14.90
2018-05-24T01:12:53.008Z,14.90
2018-05-24T01:15:34.514Z,14.90
2018-05-24T01:18:06.860Z,14.90
2018-05-24T01:20:38.355Z,14.90
2018-05-24T01:23:19.289Z,14.90
2018-05-24T01:25:49.262Z,14.90
2018-05-24T01:28:20.345Z,14.70
2018-05-24T01:30:49.224Z,14.70
2018-05-24T01:33:16.993Z,14.60
2018-05-24T01:35:46.920Z,14.60
2018-05-24T01:38:18.584Z,14.60
2018-05-24T01:40:46.167Z,14.60
2018-05-24T01:43:16.915Z,14.70
2018-05-24T01:45:45.292Z,14.60
2018-05-24T01:48:14.309Z,14.70
2018-05-24T01:50:42.261Z,14.60
2018-05-24T01:53:17.038Z,14.60
2018-05-24T01:55:43.596Z,14.60
2018-05-24T01:58:16.153Z,14.80
2018-05-24T02:00:48.556Z,14.80
2018-05-24T02:03:19.861Z,14.70
2018-05-24T02:05:52.193Z,14.70
2018-05-24T02:08:34.830Z,14.70
2018-05-24T02:11:11.316Z,14.70
2018-05-24T02:13:42.056Z,14.70
2018-05-24T02:16:18.639Z,14.60
2018-05-24T02:18:52.145Z,14.50
2018-05-24T02:21:24.015Z,14.50
2018-05-24T02:24:00.912Z,14.40
2018-05-24T02:26:29.318Z,14.40
2018-05-24T02:29:09.261Z,14.40
2018-05-24T02:31:45.640Z,14.40
2018-05-24T02:34:21.200Z,14.40
2018-05-24T02:36:57.829Z,14.30
2018-05-24T02:39:33.168Z,14.20
2018-05-24T02:42:06.764Z,14.20
2018-05-24T02:44:35.409Z,14.00
2018-05-24T02:47:05.095Z,14.00
2018-05-24T02:49:31.725Z,13.90
2018-05-24T02:52:07.902Z,13.90
2018-05-24T02:54:39.452Z,13.90
2018-05-24T02:57:06.781Z,13.80
2018-05-24T02:59:38.389Z,13.80
2018-05-24T03:02:09.340Z,13.70
2018-05-24T03:04:57.861Z,13.70
2018-05-24T03:07:25.244Z,13.60
2018-05-24T03:10:00.124Z,13.60
2018-05-24T03:12:30.469Z,13.60
2018-05-24T03:14:57.101Z,13.60
2018-05-24T03:17:24.801Z,13.60
2018-05-24T03:19:53.164Z,13.80
2018-05-24T03:22:20.539Z,13.70
2018-05-24T03:24:50.869Z,13.70
2018-05-24T03:27:19.805Z,13.80
2018-05-24T03:29:50.192Z,14.00
2018-05-24T03:32:20.357Z,14.00
2018-05-24T03:34:50.722Z,14.10
2018-05-24T03:37:23.180Z,14.10
2018-05-24T03:39:50.545Z,14.10
2018-05-24T03:42:17.197Z,14.10
2018-05-24T03:44:53.424Z,14.00
2018-05-24T03:47:26.869Z,14.00
2018-05-24T03:49:55.273Z,14.20
2018-05-24T03:52:22.560Z,14.20
2018-05-24T03:54:55.228Z,14.20
2018-05-24T03:57:37.856Z,14.20
2018-05-24T04:00:22.634Z,14.20
2018-05-24T04:03:07.440Z,14.00
2018-05-24T04:05:40.014Z,13.90
2018-05-24T04:08:14.520Z,14.00
2018-05-24T04:10:48.997Z,14.20
2018-05-24T04:14:01.187Z,14.20
2018-05-24T04:16:28.504Z,14.40
2018-05-24T04:19:16.767Z,14.40
2018-05-24T04:21:53.885Z,14.40
2018-05-24T04:24:26.405Z,14.50
2018-05-24T04:27:02.967Z,14.50
2018-05-24T04:29:39.479Z,14.70
2018-05-24T04:32:09.932Z,15.40
2018-05-24T04:34:41.371Z,15.60
2018-05-24T04:37:14.413Z,15.60
2018-05-24T04:39:42.768Z,15.50
2018-05-24T04:42:14.540Z,15.10
2018-05-24T04:44:45.984Z,15.20
2018-05-24T04:47:18.742Z,15.20
2018-05-24T04:49:49.124Z,15.90
2018-05-24T04:52:31.216Z,16.50
2018-05-24T04:55:05.801Z,16.50
2018-05-24T04:57:32.432Z,17.00
2018-05-24T05:00:06.872Z,17.20
2018-05-24T05:03:01.907Z,16.80
2018-05-24T05:05:29.849Z,16.70
2018-05-24T05:07:57.213Z,16.80
2018-05-24T05:10:26.521Z,16.80
2018-05-24T05:12:56.877Z,16.90
2018-05-24T05:15:25.869Z,16.80
2018-05-24T05:17:55.912Z,16.70
2018-05-24T05:20:24.505Z,16.70
2018-05-24T05:22:52.840Z,16.80
2018-05-24T05:25:21.884Z,17.00
2018-05-24T05:27:53.460Z,17.10
2018-05-24T05:30:19.991Z,17.10
2018-05-24T05:32:49.212Z,16.80
2018-05-24T05:35:20.077Z,16.70
2018-05-24T05:37:48.344Z,16.70
2018-05-24T05:40:15.752Z,16.80
2018-05-24T05:42:43.200Z,16.80
2018-05-24T05:45:11.875Z,17.10
2018-05-24T05:47:39.956Z,17.10
2018-05-24T05:50:08.877Z,17.40
2018-05-24T05:52:36.076Z,17.40
2018-05-24T05:55:04.744Z,17.50
2018-05-24T05:57:33.935Z,17.90
2018-05-24T06:00:01.485Z,17.80
2018-05-24T06:02:28.038Z,17.90
2018-05-24T06:05:09.133Z,17.90
2018-05-24T06:07:35.681Z,17.90
2018-05-24T06:10:03.081Z,18.00
2018-05-24T06:12:33.468Z,17.90
2018-05-24T06:15:00.221Z,17.80
2018-05-24T06:17:29.495Z,17.40
2018-05-24T06:20:00.324Z,17.60
2018-05-24T06:22:28.723Z,17.70
2018-05-24T06:24:56.068Z,17.70
2018-05-24T06:27:23.656Z,17.80
2018-05-24T06:29:51.329Z,18.20
2018-05-24T06:32:19.726Z,18.80
2018-05-24T06:34:47.116Z,18.80
2018-05-24T06:37:17.476Z,18.10
2018-05-24T06:39:45.396Z,18.40
2018-05-24T06:42:12.768Z,18.10
2018-05-24T06:44:40.907Z,18.30
2018-05-24T06:47:08.269Z,18.30
2018-05-24T06:49:38.248Z,18.00
2018-05-24T06:52:07.464Z,17.80
2018-05-24T06:54:37.061Z,17.80
2018-05-24T06:57:03.592Z,17.60
2018-05-24T06:59:31.929Z,17.70
2018-05-24T07:01:59.276Z,17.40
2018-05-24T07:04:28.442Z,17.30
2018-05-24T07:07:00.577Z,17.30
2018-05-24T07:09:29.305Z,17.30
2018-05-24T07:11:56.586Z,17.50
2018-05-24T07:14:27.076Z,17.50
2018-05-24T07:16:57.476Z,17.90
2018-05-24T07:19:24.852Z,18.50
2018-05-24T07:21:54.001Z,18.60
2018-05-24T07:24:24.126Z,18.60
2018-05-24T07:26:53.410Z,18.90
2018-05-24T07:29:20.081Z,18.90
2018-05-24T07:31:50.424Z,19.80
2018-05-24T07:34:19.452Z,19.60
2018-05-24T07:36:46.621Z,19.60
2018-05-24T07:39:13.948Z,20.40
2018-05-24T07:41:42.364Z,20.40
2018-05-24T07:44:09.697Z,20.60
2018-05-24T07:46:36.284Z,20.60
2018-05-24T07:49:06.665Z,21.10
2018-05-24T07:51:33.408Z,21.10
2018-05-24T07:54:00.096Z,20.90
2018-05-24T07:56:27.452Z,20.30
2018-05-24T07:58:58.937Z,20.40
2018-05-24T08:01:27.263Z,20.50
2018-05-24T08:03:56.656Z,20.10
2018-05-24T08:06:28.337Z,20.10
2018-05-24T08:08:55.668Z,20.00
2018-05-24T08:11:22.209Z,20.00
2018-05-24T08:13:58.285Z,18.70
2018-05-24T08:16:26.428Z,18.70
2018-05-24T08:18:53.893Z,18.90
2018-05-24T08:21:21.212Z,18.90
2018-05-24T08:23:50.388Z,18.90
2018-05-24T08:26:22.912Z,18.90
2018-05-24T08:28:53.060Z,19.10
2018-05-24T08:31:24.021Z,19.30
2018-05-24T08:33:53.657Z,19.20
2018-05-24T08:36:26.517Z,19.40
2018-05-24T08:38:57.853Z,19.70
2018-05-24T08:41:24.421Z,19.70
2018-05-24T08:43:56.813Z,19.80
2018-05-24T08:46:23.356Z,20.20
2018-05-24T08:48:50.745Z,20.90
2018-05-24T08:51:17.304Z,20.90
2018-05-24T08:53:43.888Z,20.90
2018-05-24T08:56:14.064Z,21.90
2018-05-24T08:58:40.648Z,21.80
2018-05-24T09:01:09.005Z,22.30
2018-05-24T09:03:36.975Z,22.10
2018-05-24T09:06:11.504Z,22.30
2018-05-24T09:08:39.864Z,22.70
2018-05-24T09:11:08.193Z,22.90
2018-05-24T09:13:36.785Z,22.80
2018-05-24T09:16:08.773Z,23.20
2018-05-24T09:18:36.152Z,22.40
2018-05-24T09:21:06.872Z,22.40
2018-05-24T09:23:35.489Z,22.50
2018-05-24T09:26:02.870Z,22.90
2018-05-24T09:28:30.202Z,23.10
2018-05-24T09:30:57.540Z,23.40
2018-05-24T09:33:27.193Z,23.40
2018-05-24T09:35:53.737Z,23.10
2018-05-24T09:38:20.394Z,23.00
2018-05-24T09:40:47.721Z,22.80
2018-05-24T09:43:17.360Z,22.40
2018-05-24T09:45:47.509Z,22.70
2018-05-24T09:48:14.881Z,22.80
2018-05-24T09:50:41.449Z,22.80
2018-05-24T09:53:09.725Z,23.40
2018-05-24T09:55:37.988Z,23.90
2018-05-24T09:58:08.644Z,23.80
2018-05-24T10:00:35.977Z,23.60
2018-05-24T10:03:02.605Z,23.50
2018-05-24T10:05:30.958Z,23.10
2018-05-24T10:07:58.984Z,23.30
2018-05-24T10:10:25.722Z,23.30
2018-05-24T10:12:53.005Z,23.70
2018-05-24T10:15:20.422Z,24.20
2018-05-24T10:17:48.813Z,23.90
2018-05-24T10:20:16.182Z,23.90
2018-05-24T10:22:43.545Z,24.00
2018-05-24T10:25:10.868Z,24.50
2018-05-24T10:27:38.232Z,23.50
2018-05-24T10:30:06.589Z,23.60
2018-05-24T10:32:33.942Z,23.80
2018-05-24T10:35:02.030Z,23.90
2018-05-24T10:37:29.376Z,23.90
2018-05-24T10:39:56.759Z,24.30
2018-05-24T10:42:25.047Z,24.80
2018-05-24T10:44:51.701Z,24.80
2018-05-24T10:47:19.060Z,25.30
2018-05-24T10:49:45.613Z,25.20
2018-05-24T10:52:12.976Z,25.00
2018-05-24T10:54:39.729Z,24.90
2018-05-24T10:57:09.069Z,24.30
2018-05-24T10:59:36.407Z,24.10
2018-05-24T11:02:04.829Z,24.00
2018-05-24T11:04:32.156Z,24.00
2018-05-24T11:07:02.143Z,24.70
2018-05-24T11:09:31.793Z,24.70
2018-05-24T11:11:58.482Z,25.10
2018-05-24T11:14:36.688Z,25.80
2018-05-24T11:17:34.525Z,25.70
2018-05-24T11:20:01.857Z,25.60
2018-05-24T11:22:30.139Z,24.10
2018-05-24T11:25:00.468Z,23.80
2018-05-24T11:27:30.592Z,23.20
2018-05-24T11:29:57.173Z,23.20
2018-05-24T11:32:25.317Z,23.30
2018-05-24T11:34:53.744Z,23.20
2018-05-24T11:37:23.198Z,22.90
2018-05-24T11:39:50.511Z,22.90
2018-05-24T11:42:21.548Z,23.00
2018-05-24T11:44:50.973Z,23.20
2018-05-24T11:47:19.369Z,23.10
2018-05-24T11:49:48.572Z,22.70
2018-05-24T11:52:16.557Z,22.60
2018-05-24T11:54:43.945Z,22.80
2018-05-24T11:57:10.586Z,22.80
2018-05-24T11:59:37.973Z,22.90
2018-05-24T12:02:12.070Z,22.90
2018-05-24T12:04:41.608Z,23.10
2018-05-24T12:07:11.672Z,23.00
2018-05-24T12:09:39.917Z,22.90
2018-05-24T12:12:09.201Z,22.90
2018-05-24T12:14:37.066Z,23.00
2018-05-24T12:17:03.748Z,23.00
2018-05-24T12:19:32.152Z,23.00
2018-05-24T12:22:04.620Z,23.00
2018-05-24T12:24:33.621Z,22.70
2018-05-24T12:27:00.952Z,22.60
2018-05-24T12:29:28.321Z,22.60
2018-05-24T12:31:55.816Z,22.40
2018-05-24T12:34:24.124Z,22.40
2018-05-24T12:36:54.556Z,22.40
2018-05-24T12:39:21.969Z,22.50
2018-05-24T12:41:50.896Z,22.40
2018-05-24T12:44:18.301Z,22.30
2018-05-24T12:46:45.877Z,22.40
2018-05-24T12:49:14.108Z,22.40
2018-05-24T12:51:40.820Z,22.40
2018-05-24T12:54:08.184Z,22.90
2018-05-24T12:56:38.236Z,23.00
2018-05-24T12:59:05.533Z,23.00
2018-05-24T13:01:32.941Z,23.20
2018-05-24T13:04:00.311Z,23.20
2018-05-24T13:06:28.913Z,23.20
2018-05-24T13:08:55.552Z,23.20
2018-05-24T13:11:22.926Z,23.60
2018-05-24T13:13:52.556Z,23.60
2018-05-24T13:16:19.900Z,23.40
2018-05-24T13:18:46.577Z,23.40
2018-05-24T13:21:14.944Z,23.60
2018-05-24T13:23:42.344Z,23.50
2018-05-24T13:26:09.843Z,23.60
2018-05-24T13:28:40.251Z,23.90
2018-05-24T13:31:08.205Z,24.10
2018-05-24T13:33:34.934Z,24.10
2018-05-24T13:36:01.509Z,24.40
2018-05-24T13:38:28.828Z,25.10
2018-05-24T13:40:57.107Z,25.50
2018-05-24T13:43:25.493Z,25.50
2018-05-24T13:45:52.828Z,25.70
2018-05-24T13:48:19.569Z,25.60
2018-05-24T13:50:47.605Z,26.00
2018-05-24T13:53:15.650Z,25.90
2018-05-24T13:55:43.713Z,26.00
2018-05-24T13:58:10.596Z,25.90
2018-05-24T14:00:41.316Z,25.20
2018-05-24T14:03:07.988Z,25.10
2018-05-24T14:05:36.541Z,25.20
2018-05-24T14:08:04.655Z,25.70
2018-05-24T14:10:33.649Z,25.80
2018-05-24T14:13:01.929Z,25.70
2018-05-24T14:15:32.504Z,25.10
2018-05-24T14:17:59.040Z,25.10
2018-05-24T14:20:25.583Z,24.80
2018-05-24T14:22:52.133Z,24.70
2018-05-24T14:25:19.464Z,24.30
2018-05-24T14:27:46.051Z,24.20
2018-05-24T14:30:14.435Z,24.20
2018-05-24T14:32:41.800Z,24.20
2018-05-24T14:35:09.631Z,24.30
2018-05-24T14:37:37.248Z,24.20
2018-05-24T14:40:04.749Z,24.30
2018-05-24T14:42:32.704Z,24.00
2018-05-24T14:45:01.720Z,23.90
2018-05-24T14:47:29.115Z,24.10
2018-05-24T14:49:55.728Z,24.00
2018-05-24T14:52:24.117Z,23.80
2018-05-24T14:54:50.651Z,23.80
2018-05-24T14:57:18.024Z,24.20
2018-05-24T14:59:44.601Z,24.20
2018-05-24T15:02:11.226Z,24.10
2018-05-24T15:04:39.543Z,23.90
2018-05-24T15:07:07.192Z,23.90
2018-05-24T15:09:34.564Z,23.60
2018-05-24T15:12:07.251Z,23.40
2018-05-24T15:14:34.628Z,23.40
2018-05-24T15:17:01.197Z,23.30
2018-05-24T15:19:28.844Z,23.30
2018-05-24T15:21:57.750Z,23.30
2018-05-24T15:24:24.396Z,23.30
2018-05-24T15:26:51.818Z,23.40
2018-05-24T15:29:19.131Z,23.30
2018-05-24T15:31:45.799Z,23.40
2018-05-24T15:34:12.433Z,23.50
2018-05-24T15:36:39.095Z,23.40
2018-05-24T15:39:06.797Z,23.50
2018-05-24T15:41:34.736Z,23.70
2018-05-24T15:44:02.017Z,23.70
2018-05-24T15:46:29.385Z,23.70
2018-05-24T15:48:59.815Z,23.80
2018-05-24T15:51:27.139Z,24.10
2018-05-24T15:53:58.364Z,24.00
2018-05-24T15:56:25.732Z,23.90
2018-05-24T15:58:53.103Z,23.90
2018-05-24T16:01:19.673Z,23.90
2018-05-24T16:03:48.242Z,24.30
2018-05-24T16:06:16.608Z,23.80
2018-05-24T16:08:43.959Z,22.50
2018-05-24T16:11:11.335Z,21.80
2018-05-24T16:13:38.710Z,21.60
2018-05-24T16:16:05.361Z,21.60
2018-05-24T16:18:32.894Z,21.30
2018-05-24T16:21:01.014Z,21.30
2018-05-24T16:23:29.258Z,21.10
2018-05-24T16:25:55.989Z,21.00
2018-05-24T16:28:24.584Z,21.00
2018-05-24T16:30:53.032Z,21.20
2018-05-24T16:33:22.286Z,21.50
2018-05-24T16:35:49.656Z,21.60
2018-05-24T16:38:17.996Z,20.90
2018-05-24T16:40:46.297Z,20.70
2018-05-24T16:43:13.970Z,20.70
2018-05-24T16:45:44.316Z,20.50
2018-05-24T16:48:12.005Z,20.50
2018-05-24T16:50:39.361Z,20.60
2018-05-24T16:53:06.716Z,20.70
2018-05-24T16:55:34.104Z,20.90
2018-05-24T16:58:01.448Z,20.80
2018-05-24T17:00:30.765Z,20.30
2018-05-24T17:02:59.184Z,20.10
2018-05-24T17:05:26.462Z,20.10
2018-05-24T17:07:55.888Z,20.30
2018-05-24T17:10:26.597Z,20.20
2018-05-24T17:12:56.005Z,20.40
2018-05-24T17:15:24.280Z,20.30
2018-05-24T17:17:53.290Z,20.40
2018-05-24T17:20:21.256Z,20.70
2018-05-24T17:22:51.301Z,21.00
2018-05-24T17:25:18.672Z,21.20
2018-05-24T17:27:47.066Z,21.30
2018-05-24T17:30:14.431Z,20.60
2018-05-24T17:32:41.084Z,20.60
2018-05-24T17:35:09.048Z,20.40
2018-05-24T17:37:35.628Z,20.40
2018-05-24T17:40:04.016Z,20.90
2018-05-24T17:42:35.447Z,20.40
2018-05-24T17:45:02.110Z,20.40
2018-05-24T17:47:30.496Z,20.10
2018-05-24T17:50:20.132Z,20.00
2018-05-24T17:52:52.581Z,20.00
2018-05-24T17:55:19.941Z,19.70
2018-05-24T17:57:46.603Z,19.90
2018-05-24T18:00:18.079Z,19.70
2018-05-24T18:02:46.377Z,19.80
2018-05-24T18:05:16.884Z,19.70
2018-05-24T18:07:49.468Z,19.60
2018-05-24T18:10:16.048Z,19.60
2018-05-24T18:12:44.416Z,19.30
2018-05-24T18:15:10.993Z,19.30
2018-05-24T18:17:42.344Z,19.20
2018-05-24T18:20:09.484Z,19.30
2018-05-24T18:22:37.160Z,19.20
2018-05-24T18:25:03.825Z,18.90
2018-05-24T18:27:31.181Z,18.80
2018-05-24T18:29:57.815Z,18.80
2018-05-24T18:32:30.220Z,18.90
2018-05-24T18:35:00.661Z,18.60
2018-05-24T18:37:28.863Z,18.50
2018-05-24T18:40:00.091Z,18.60
2018-05-24T18:42:32.688Z,18.60
2018-05-24T18:45:01.313Z,18.60
2018-05-24T18:47:29.732Z,18.70
2018-05-24T18:50:03.944Z,18.60
2018-05-24T18:52:31.227Z,18.50
2018-05-24T18:54:59.661Z,18.50
2018-05-24T18:57:31.865Z,18.30
2018-05-24T19:00:00.238Z,18.30
2018-05-24T19:02:28.644Z,18.10
2018-05-24T19:04:56.865Z,18.00
2018-05-24T19:07:26.323Z,17.90
2018-05-24T19:09:57.684Z,17.80
2018-05-24T19:12:26.908Z,17.70
2018-05-24T19:14:57.493Z,17.50
2018-05-24T19:17:33.452Z,17.50
2018-05-24T19:20:00.872Z,17.50
2018-05-24T19:22:28.201Z,17.50
2018-05-24T19:24:59.733Z,17.50
2018-05-24T19:27:28.121Z,17.60
2018-05-24T19:29:56.608Z,17.50
2018-05-24T19:32:29.280Z,17.60
2018-05-24T19:35:01.325Z,17.60
2018-05-24T19:37:31.653Z,17.60
2018-05-24T19:40:02.747Z,17.60
2018-05-24T19:42:37.636Z,17.60
2018-05-24T19:45:12.945Z,17.50
2018-05-24T19:47:40.197Z,17.50
2018-05-24T19:50:11.993Z,17.50
2018-05-24T19:52:39.203Z,17.50
2018-05-24T19:55:12.073Z,17.40
2018-05-24T19:57:39.523Z,17.30
2018-05-24T20:00:06.896Z,17.20
2018-05-24T20:02:37.337Z,17.10
2018-05-24T20:05:05.005Z,17.10
2018-05-24T20:07:37.272Z,17.20
2018-05-24T20:10:05.911Z,17.20
2018-05-24T20:12:34.860Z,16.90
2018-05-24T20:15:02.356Z,16.70
2018-05-24T20:17:33.629Z,16.80
2018-05-24T20:20:05.763Z,17.00
2018-05-24T20:22:33.172Z,17.20
2018-05-24T20:25:03.420Z,17.10
2018-05-24T20:27:31.415Z,17.00
2018-05-24T20:29:58.901Z,16.80
2018-05-24T20:32:28.276Z,16.60
2018-05-24T20:34:54.925Z,16.60
2018-05-24T20:37:22.272Z,16.70
2018-05-24T20:40:05.056Z,16.70
2018-05-24T20:42:42.808Z,16.80
2018-05-24T20:45:12.955Z,16.80
2018-05-24T20:47:40.312Z,16.80
2018-05-24T20:50:11.298Z,16.80
2018-05-24T20:52:38.581Z,16.90
2018-05-24T20:55:08.655Z,16.90
2018-05-24T20:57:37.937Z,16.70
2018-05-24T21:00:05.264Z,16.70
2018-05-24T21:02:33.739Z,16.70
2018-05-24T21:05:01.955Z,16.70
2018-05-24T21:07:29.588Z,16.70
2018-05-24T21:10:00.646Z,16.60
2018-05-24T21:12:29.995Z,16.60
2018-05-24T21:14:57.940Z,16.60
2018-05-24T21:17:25.305Z,16.40
2018-05-24T21:19:53.402Z,16.20
2018-05-24T21:22:21.783Z,16.20
2018-05-24T21:24:49.147Z,16.10
2018-05-24T21:27:19.488Z,16.10
2018-05-24T21:29:47.476Z,16.20
2018-05-24T21:32:15.869Z,16.20
2018-05-24T21:34:48.764Z,16.30
2018-05-24T21:37:18.182Z,16.30
2018-05-24T21:39:45.519Z,16.40
2018-05-24T21:42:21.313Z,16.40
2018-05-24T21:44:49.759Z,16.40
2018-05-24T21:47:19.115Z,16.40
2018-05-24T21:49:45.697Z,16.40
2018-05-24T21:52:15.392Z,16.40
2018-05-24T21:54:46.029Z,16.40
2018-05-24T21:57:16.567Z,16.30
2018-05-24T21:59:43.981Z,16.30
2018-05-24T22:02:16.968Z,16.30
2018-05-24T22:04:44.288Z,16.20
2018-05-24T22:07:12.543Z,16.30
2018-05-24T22:09:47.665Z,16.40
2018-05-24T22:12:18.309Z,16.20
2018-05-24T22:14:51.505Z,16.10
2018-05-24T22:17:19.909Z,16.10
2018-05-24T22:19:47.277Z,16.10
2018-05-24T22:22:16.498Z,16.00
2018-05-24T22:24:43.865Z,16.00
2018-05-24T22:27:12.166Z,16.00
2018-05-24T22:29:41.640Z,16.10
2018-05-24T22:32:12.704Z,16.10
2018-05-24T22:34:41.093Z,16.10
2018-05-24T22:37:08.161Z,16.10
2018-05-24T22:39:36.516Z,16.00
2018-05-24T22:42:07.793Z,16.00
2018-05-24T22:44:38.256Z,15.90
2018-05-24T22:47:14.099Z,15.80
2018-05-24T22:50:12.890Z,16.00
2018-05-24T22:52:45.803Z,15.80
2018-05-24T22:55:18.495Z,15.60
2018-05-24T22:57:54.249Z,15.50
2018-05-24T23:00:24.707Z,15.40
2018-05-24T23:03:00.000Z,15.40
2018-05-24T23:05:40.359Z,15.40
2018-05-24T23:08:13.881Z,15.10
2018-05-24T23:10:44.226Z,15.10
2018-05-24T23:13:17.583Z,15.30
2018-05-24T23:15:49.675Z,15.20
2018-05-24T23:18:17.021Z,15.00
2018-05-24T23:20:44.375Z,14.90
2018-05-24T23:23:19.847Z,14.90
2018-05-24T23:25:47.309Z,14.90
2018-05-24T23:28:14.796Z,14.90
2018-05-24T23:30:42.352Z,14.90
2018-05-24T23:33:12.723Z,14.90
2018-05-24T23:35:41.107Z,14.80
2018-05-24T23:38:08.761Z,14.80
2018-05-24T23:40:36.336Z,14.70
2018-05-24T23:43:05.488Z,14.40
2018-05-24T23:45:41.317Z,14.50
2018-05-24T23:48:08.688Z,14.50
2018-05-24T23:50:45.053Z,14.50
2018-05-24T23:53:15.405Z,14.70
2018-05-24T23:55:43.446Z,14.70
2018-05-24T23:58:16.892Z,14.70
